sensor_id;sensor_type;location;lat;lon;timestamp;pressure;altitude;pressure_sealevel;temperature;humidity
45939;BME280;31650;48.818;9.116;2023-05-07T00:07:59;97868.19;;;11.70;100.00
45939;BME280;31650;48.818;9.116;2023-05-07T00:22:59;97876.00;;;11.48;100.00
45939;BME280;31650;48.818;9.116;2023-05-07T00:38:01;97868.66;;;11.30;100.00
45939;BME280;31650;48.818;9.116;2023-05-07T00:53:01;97856.38;;;11.09;100.00
45939;BME280;31650;48.818;9.116;2023-05-07T01:08:01;97847.38;;;10.90;100.00
45939;BME280;31650;48.818;9.116;2023-05-07T01:23:02;97859.81;;;10.79;100.00
45939;BME280;31650;48.818;9.116;2023-05-07T01:38:03;97855.19;;;10.61;100.00
45939;BME280;31650;48.818;9.116;2023-05-07T01:53:06;97851.88;;;10.78;100.00
45939;BME280;31650;48.818;9.116;2023-05-07T02:08:06;97862.63;;;11.09;100.00
45939;BME280;31650;48.818;9.116;2023-05-07T02:23:06;97852.41;;;10.86;100.00
45939;BME280;31650;48.818;9.116;2023-05-07T02:38:06;97857.78;;;10.50;100.00
45939;BME280;31650;48.818;9.116;2023-05-07T02:53:07;97856.84;;;10.06;100.00
45939;BME280;31650;48.818;9.116;2023-05-07T03:08:07;97847.97;;;9.92;100.00
45939;BME280;31650;48.818;9.116;2023-05-07T03:23:08;97836.47;;;9.58;100.00
45939;BME280;31650;48.818;9.116;2023-05-07T03:38:08;97839.47;;;9.43;100.00
45939;BME280;31650;48.818;9.116;2023-05-07T03:53:08;97855.56;;;9.38;100.00
45939;BME280;31650;48.818;9.116;2023-05-07T04:08:08;97851.34;;;9.42;100.00
45939;BME280;31650;48.818;9.116;2023-05-07T04:23:09;97858.38;;;9.56;100.00
45939;BME280;31650;48.818;9.116;2023-05-07T04:38:09;97868.63;;;9.93;100.00
45939;BME280;31650;48.818;9.116;2023-05-07T04:53:10;97883.78;;;10.39;100.00
45939;BME280;31650;48.818;9.116;2023-05-07T05:08:10;97885.63;;;10.45;100.00
45939;BME280;31650;48.818;9.116;2023-05-07T05:23:10;97903.88;;;10.88;100.00
45939;BME280;31650;48.818;9.116;2023-05-07T05:38:10;97893.34;;;12.56;100.00
45939;BME280;31650;48.818;9.116;2023-05-07T05:53:11;97854.94;;;13.69;100.00
45939;BME280;31650;48.818;9.116;2023-05-07T06:08:11;97857.47;;;15.00;100.00
45939;BME280;31650;48.818;9.116;2023-05-07T06:23:11;97846.91;;;16.19;96.05
45939;BME280;31650;48.818;9.116;2023-05-07T06:38:11;97850.28;;;16.96;95.44
45939;BME280;31650;48.818;9.116;2023-05-07T06:53:12;97833.66;;;19.45;74.17
45939;BME280;31650;48.818;9.116;2023-05-07T07:08:12;97829.03;;;20.39;63.57
45939;BME280;31650;48.818;9.116;2023-05-07T07:23:13;97816.22;;;20.88;64.19
45939;BME280;31650;48.818;9.116;2023-05-07T07:38:13;97834.78;;;21.36;62.46
45939;BME280;31650;48.818;9.116;2023-05-07T07:53:13;97837.53;;;20.82;60.28
45939;BME280;31650;48.818;9.116;2023-05-07T08:08:13;97839.47;;;21.11;60.06
45939;BME280;31650;48.818;9.116;2023-05-07T08:23:14;97839.13;;;22.33;59.10
45939;BME280;31650;48.818;9.116;2023-05-07T08:38:14;97828.47;;;22.40;60.26
45939;BME280;31650;48.818;9.116;2023-05-07T08:53:14;97833.13;;;24.43;52.64
45939;BME280;31650;48.818;9.116;2023-05-07T09:08:16;97828.81;;;24.96;48.80
45939;BME280;31650;48.818;9.116;2023-05-07T09:23:16;97822.50;;;24.59;49.31
45939;BME280;31650;48.818;9.116;2023-05-07T09:38:17;97807.94;;;25.87;48.10
45939;BME280;31650;48.818;9.116;2023-05-07T09:53:19;97801.94;;;26.55;45.96
45939;BME280;31650;48.818;9.116;2023-05-07T10:08:20;97794.06;;;26.83;44.34
45939;BME280;31650;48.818;9.116;2023-05-07T10:23:23;97764.91;;;27.87;42.52
45939;BME280;31650;48.818;9.116;2023-05-07T10:38:24;97776.00;;;26.81;45.55
45939;BME280;31650;48.818;9.116;2023-05-07T10:53:25;97756.38;;;26.60;45.42
45939;BME280;31650;48.818;9.116;2023-05-07T11:08:33;97764.06;;;25.36;46.89
45939;BME280;31650;48.818;9.116;2023-05-07T11:38:48;97759.69;;;24.13;54.75
45939;BME280;31650;48.818;9.116;2023-05-07T11:53:48;97762.44;;;22.80;59.62
45939;BME280;31650;48.818;9.116;2023-05-07T12:08:48;97788.19;;;22.81;57.26
45939;BME280;31650;48.818;9.116;2023-05-07T12:23:49;97788.31;;;21.38;65.88
45939;BME280;31650;48.818;9.116;2023-05-07T12:38:49;97826.91;;;18.24;100.00
45939;BME280;31650;48.818;9.116;2023-05-07T12:53:49;97876.41;;;16.98;100.00
45939;BME280;31650;48.818;9.116;2023-05-07T13:08:50;97887.78;;;15.71;100.00
45939;BME280;31650;48.818;9.116;2023-05-07T13:23:50;97914.66;;;15.36;100.00
45939;BME280;31650;48.818;9.116;2023-05-07T13:38:50;97922.53;;;14.47;100.00
45939;BME280;31650;48.818;9.116;2023-05-07T13:53:51;97899.47;;;14.55;100.00
45939;BME280;31650;48.818;9.116;2023-05-07T14:08:52;97926.50;;;14.85;100.00
45939;BME280;31650;48.818;9.116;2023-05-07T14:23:52;97942.75;;;15.09;100.00
45939;BME280;31650;48.818;9.116;2023-05-07T14:38:53;97939.13;;;15.03;100.00
45939;BME280;31650;48.818;9.116;2023-05-07T14:53:58;97912.88;;;15.07;100.00
45939;BME280;31650;48.818;9.116;2023-05-07T15:09:00;97920.34;;;15.51;100.00
45939;BME280;31650;48.818;9.116;2023-05-07T15:24:00;97942.50;;;16.10;100.00
45939;BME280;31650;48.818;9.116;2023-05-07T15:39:01;97953.38;;;16.27;100.00
45939;BME280;31650;48.818;9.116;2023-05-07T15:54:02;97951.03;;;16.36;100.00
45939;BME280;31650;48.818;9.116;2023-05-07T16:09:03;97976.16;;;16.28;100.00
45939;BME280;31650;48.818;9.116;2023-05-07T16:24:03;98013.44;;;16.24;100.00
45939;BME280;31650;48.818;9.116;2023-05-07T16:39:04;98040.38;;;15.88;100.00
45939;BME280;31650;48.818;9.116;2023-05-07T16:54:05;98044.53;;;15.90;100.00
45939;BME280;31650;48.818;9.116;2023-05-07T17:09:05;98044.84;;;16.16;100.00
45939;BME280;31650;48.818;9.116;2023-05-07T17:24:06;98046.66;;;16.05;100.00
45939;BME280;31650;48.818;9.116;2023-05-07T17:39:06;98049.09;;;15.85;100.00
45939;BME280;31650;48.818;9.116;2023-05-07T17:54:06;98068.03;;;15.52;100.00
45939;BME280;31650;48.818;9.116;2023-05-07T18:09:07;98090.69;;;15.31;100.00
45939;BME280;31650;48.818;9.116;2023-05-07T18:24:07;98120.03;;;15.02;100.00
45939;BME280;31650;48.818;9.116;2023-05-07T18:39:08;98138.59;;;14.71;100.00
45939;BME280;31650;48.818;9.116;2023-05-07T18:54:08;98156.25;;;14.28;100.00
45939;BME280;31650;48.818;9.116;2023-05-07T19:09:08;98155.53;;;13.97;100.00
45939;BME280;31650;48.818;9.116;2023-05-07T19:24:08;98176.94;;;13.77;100.00
45939;BME280;31650;48.818;9.116;2023-05-07T19:39:09;98201.66;;;13.82;100.00
45939;BME280;31650;48.818;9.116;2023-05-07T19:54:09;98231.22;;;13.85;100.00
45939;BME280;31650;48.818;9.116;2023-05-07T20:09:09;98235.41;;;13.99;100.00
45939;BME280;31650;48.818;9.116;2023-05-07T20:24:11;98239.34;;;14.03;100.00
45939;BME280;31650;48.818;9.116;2023-05-07T20:39:11;98242.69;;;14.05;100.00
45939;BME280;31650;48.818;9.116;2023-05-07T20:54:14;98258.59;;;13.97;100.00
45939;BME280;31650;48.818;9.116;2023-05-07T21:09:15;98264.28;;;13.83;100.00
45939;BME280;31650;48.818;9.116;2023-05-07T21:24:15;98272.91;;;13.80;100.00
45939;BME280;31650;48.818;9.116;2023-05-07T21:39:15;98260.13;;;13.81;100.00
45939;BME280;31650;48.818;9.116;2023-05-07T21:54:15;98271.16;;;13.86;100.00
45939;BME280;31650;48.818;9.116;2023-05-07T22:09:16;98268.44;;;13.86;100.00
45939;BME280;31650;48.818;9.116;2023-05-07T22:24:16;98263.44;;;13.83;100.00
45939;BME280;31650;48.818;9.116;2023-05-07T22:39:16;98256.22;;;13.89;100.00
45939;BME280;31650;48.818;9.116;2023-05-07T22:54:16;98262.50;;;13.89;100.00
45939;BME280;31650;48.818;9.116;2023-05-07T23:09:17;98267.72;;;13.79;100.00
45939;BME280;31650;48.818;9.116;2023-05-07T23:24:17;98257.13;;;13.82;100.00
45939;BME280;31650;48.818;9.116;2023-05-07T23:39:17;98241.13;;;13.86;100.00
45939;BME280;31650;48.818;9.116;2023-05-07T23:54:18;98246.94;;;13.90;100.00
